X  Close Metar Aviation Weather Data     EDDM Munich Airport
Temperature
27°C Temperature
17°C Dewpoint
54% Humidity



Wind
9 MPH
14 KM/H
4 M/S
8 KTS



340°
NNW
Current Conditions

Clear Clear
Pressure 1015.92 (hPa) - 30 (inHg)
Visibility 6 (mile) - 9.7 (km)
Airport
Airport-code EDDM

Location: Munich Airport
Distance: 73 (mi)

Metar:
EDDM 191750Z AUTO 34008KT CAVOK 27/17 Q1016 NOSIG

Time: 19-06-2024 17:50 CEST